Hot Springs Village, Arkansas
Current Conditions -  °F | °C
As of 8:37 AM on Sunday 21 Dec 2014 (Local Time) from KHOT Reporting Station
Light Snow Light Snow  
Wind Chill: 37°   Ceiling: Unl
Heat Index: 37°   Visibility: 4mi
Dew Point: 36°   Wind: 3mph
Humidity: 96%   Direction: 130°SE
Pressure: 30.17"   Gusts: NA
Location:  34.66°N, 93.05°W
Report Text: KHOT 211437Z AUTO 13003KT 4SM -SN BR CLR 03/02 A3017 RMK AO2 UPE03RAB05E22B32E36SNB22 P0000 T00280022
Loading
Personal Weather Stations






























Interactive Weather Map New forecast layout! Learn more

10-Day Weather Forecast

Advertisements
Track Severe Weather on mobile